createdAt,value
2023-03-18T00:01:11.606Z,44.61
2023-03-18T00:03:40.028Z,44.57
2023-03-18T00:06:18.519Z,44.88
2023-03-18T00:08:47.944Z,44.76
2023-03-18T00:11:18.779Z,44.71
2023-03-18T00:13:46.708Z,44.69
2023-03-18T00:16:15.263Z,44.84
2023-03-18T00:18:43.321Z,45.05
2023-03-18T00:21:11.157Z,44.85
2023-03-18T00:23:39.637Z,45.10
2023-03-18T00:26:09.085Z,44.94
2023-03-18T00:28:38.759Z,44.77
2023-03-18T00:31:13.770Z,44.98
2023-03-18T00:33:46.026Z,44.71
2023-03-18T00:36:15.192Z,45.19
2023-03-18T00:38:46.107Z,46.00
2023-03-18T00:41:16.268Z,46.93
2023-03-18T00:43:52.449Z,45.70
2023-03-18T00:46:27.528Z,45.50
2023-03-18T00:49:00.124Z,45.38
2023-03-18T00:51:32.397Z,45.72
2023-03-18T00:54:06.710Z,45.62
2023-03-18T00:56:37.674Z,45.94
2023-03-18T00:59:07.584Z,45.62
2023-03-18T01:01:36.734Z,45.76
2023-03-18T01:04:04.963Z,46.22
2023-03-18T01:06:35.896Z,45.59
2023-03-18T01:09:07.028Z,46.10
2023-03-18T01:11:34.982Z,45.97
2023-03-18T01:14:03.712Z,46.18
2023-03-18T01:16:31.166Z,45.88
2023-03-18T01:18:59.944Z,45.83
2023-03-18T01:21:27.989Z,45.50
2023-03-18T01:23:55.684Z,46.04
2023-03-18T01:26:23.812Z,45.94
2023-03-18T01:28:51.795Z,45.79
2023-03-18T01:31:19.677Z,45.73
2023-03-18T01:33:47.936Z,46.33
2023-03-18T01:36:15.698Z,46.07
2023-03-18T01:38:43.648Z,45.90
2023-03-18T01:41:12.579Z,46.04
2023-03-18T01:43:42.968Z,46.08
2023-03-18T01:46:39.063Z,46.03
2023-03-18T01:49:41.212Z,46.19
2023-03-18T01:52:21.640Z,45.99
2023-03-18T01:55:08.634Z,46.31
2023-03-18T01:57:37.495Z,45.79
2023-03-18T02:00:07.009Z,46.07
2023-03-18T02:02:34.262Z,46.77
2023-03-18T02:05:06.561Z,46.08
2023-03-18T02:07:36.319Z,46.26
2023-03-18T02:10:30.102Z,46.38
2023-03-18T02:13:10.490Z,46.60
2023-03-18T02:15:57.076Z,46.87
2023-03-18T02:18:40.933Z,47.43
2023-03-18T02:21:56.592Z,48.10
2023-03-18T02:25:03.995Z,47.98
2023-03-18T02:27:40.258Z,48.24
2023-03-18T02:30:19.100Z,48.34
2023-03-18T02:32:49.599Z,48.49
2023-03-18T02:35:17.246Z,48.38
2023-03-18T02:37:44.789Z,48.67
2023-03-18T02:40:31.490Z,49.15
2023-03-18T02:43:19.224Z,50.07
2023-03-18T02:46:15.463Z,50.07
2023-03-18T02:48:46.243Z,49.97
2023-03-18T02:51:17.052Z,49.90
2023-03-18T02:53:44.692Z,50.21
2023-03-18T02:56:12.317Z,50.54
2023-03-18T02:58:41.205Z,50.49
2023-03-18T03:01:09.976Z,50.72
2023-03-18T03:03:38.832Z,50.77
2023-03-18T03:06:07.718Z,50.71
2023-03-18T03:08:35.338Z,50.44
2023-03-18T03:11:03.035Z,50.37
2023-03-18T03:13:30.870Z,50.22
2023-03-18T03:15:58.154Z,50.45
2023-03-18T03:18:26.739Z,50.06
2023-03-18T03:20:54.177Z,50.32
2023-03-18T03:23:21.887Z,50.03
2023-03-18T03:25:49.557Z,50.23
2023-03-18T03:28:17.348Z,50.27
2023-03-18T03:30:45.997Z,50.24
2023-03-18T03:33:13.906Z,50.13
2023-03-18T03:35:42.177Z,51.09
2023-03-18T03:38:10.710Z,50.68
2023-03-18T03:40:39.049Z,50.46
2023-03-18T03:43:07.059Z,50.57
2023-03-18T03:45:34.681Z,50.74
2023-03-18T03:48:02.245Z,50.61
2023-03-18T03:50:29.712Z,50.67
2023-03-18T03:52:58.376Z,50.35
2023-03-18T03:55:25.933Z,50.34
2023-03-18T03:57:53.488Z,51.21
2023-03-18T04:00:24.235Z,50.83
2023-03-18T04:02:54.276Z,51.33
2023-03-18T04:05:24.681Z,50.99
2023-03-18T04:07:54.265Z,52.24
2023-03-18T04:10:22.852Z,51.59
2023-03-18T04:12:51.098Z,51.97
2023-03-18T04:15:21.983Z,52.35
2023-03-18T04:17:50.960Z,52.19
2023-03-18T04:20:18.997Z,52.82
2023-03-18T04:22:47.055Z,52.57
2023-03-18T04:25:15.095Z,52.81
2023-03-18T04:27:43.828Z,52.63
2023-03-18T04:30:12.738Z,52.36
2023-03-18T04:32:40.443Z,52.20
2023-03-18T04:35:09.318Z,52.50
2023-03-18T04:37:37.587Z,52.23
2023-03-18T04:40:06.593Z,52.18
2023-03-18T04:42:34.328Z,52.12
2023-03-18T04:45:02.082Z,52.29
2023-03-18T04:47:29.583Z,52.45
2023-03-18T04:49:56.820Z,52.37
2023-03-18T04:52:24.687Z,52.23
2023-03-18T04:54:52.710Z,52.67
2023-03-18T04:57:20.536Z,52.27
2023-03-18T04:59:47.972Z,52.21
2023-03-18T05:02:15.683Z,52.57
2023-03-18T05:04:44.044Z,52.45
2023-03-18T05:07:16.618Z,52.11
2023-03-18T05:09:44.000Z,52.27
2023-03-18T05:12:16.169Z,52.09
2023-03-18T05:14:45.092Z,52.15
2023-03-18T05:17:17.154Z,51.95
2023-03-18T05:19:47.624Z,52.37
2023-03-18T05:22:19.021Z,52.45
2023-03-18T05:24:46.980Z,52.17
2023-03-18T05:27:18.598Z,52.28
2023-03-18T05:29:46.439Z,52.16
2023-03-18T05:32:14.936Z,52.00
2023-03-18T05:34:42.911Z,52.25
2023-03-18T05:37:14.054Z,52.20
2023-03-18T05:39:44.842Z,51.89
2023-03-18T05:42:14.249Z,51.90
2023-03-18T05:44:42.272Z,51.81
2023-03-18T05:47:10.760Z,51.84
2023-03-18T05:49:38.071Z,51.66
2023-03-18T05:52:06.419Z,51.53
2023-03-18T05:54:34.030Z,51.27
2023-03-18T05:57:01.639Z,51.34
2023-03-18T05:59:30.265Z,51.42
2023-03-18T06:01:58.040Z,51.10
2023-03-18T06:04:27.198Z,51.11
2023-03-18T06:06:55.385Z,50.75
2023-03-18T06:09:23.394Z,50.61
2023-03-18T06:11:51.020Z,50.72
2023-03-18T06:14:19.601Z,50.43
2023-03-18T06:16:47.228Z,50.53
2023-03-18T06:19:14.573Z,50.39
2023-03-18T06:21:42.292Z,49.24
2023-03-18T06:24:09.756Z,49.11
2023-03-18T06:26:37.401Z,48.19
2023-03-18T06:29:05.364Z,47.93
2023-03-18T06:31:34.235Z,48.20
2023-03-18T06:34:01.753Z,47.39
2023-03-18T06:36:29.285Z,46.72
2023-03-18T06:38:56.819Z,47.04
2023-03-18T06:41:24.379Z,46.66
2023-03-18T06:43:52.208Z,45.97
2023-03-18T06:46:20.031Z,45.70
2023-03-18T06:48:47.463Z,45.61
2023-03-18T06:51:14.995Z,45.51
2023-03-18T06:53:42.243Z,45.76
2023-03-18T06:56:10.101Z,45.68
2023-03-18T06:58:37.873Z,45.79
2023-03-18T07:01:05.679Z,45.64
2023-03-18T07:03:33.065Z,45.98
2023-03-18T07:06:01.313Z,45.41
2023-03-18T07:08:29.333Z,45.49
2023-03-18T07:10:57.806Z,45.19
2023-03-18T07:13:25.348Z,44.99
2023-03-18T07:15:56.560Z,44.59
2023-03-18T07:18:24.664Z,44.46
2023-03-18T07:20:52.638Z,43.79
2023-03-18T07:23:20.756Z,43.33
2023-03-18T07:25:48.370Z,43.35
2023-03-18T07:28:15.930Z,42.58
2023-03-18T07:30:43.455Z,41.69
2023-03-18T07:33:10.775Z,39.17
2023-03-18T07:35:41.137Z,34.35
2023-03-18T07:38:10.018Z,30.06
2023-03-18T07:40:38.066Z,27.05
2023-03-18T07:43:06.865Z,24.89
2023-03-18T07:45:35.078Z,22.91
2023-03-18T07:48:02.476Z,22.79
2023-03-18T07:50:30.006Z,21.79
2023-03-18T07:52:57.345Z,22.51
2023-03-18T07:55:25.472Z,21.51
2023-03-18T07:57:52.838Z,21.54
2023-03-18T08:00:21.079Z,21.05
2023-03-18T08:02:48.385Z,19.46
2023-03-18T08:05:16.217Z,18.86
2023-03-18T08:07:43.672Z,18.51
2023-03-18T08:10:12.648Z,18.53
2023-03-18T08:12:52.168Z,18.45
2023-03-18T08:15:22.364Z,17.18
2023-03-18T08:17:51.251Z,17.09
2023-03-18T08:20:20.274Z,16.71
2023-03-18T08:22:48.516Z,17.84
2023-03-18T08:25:17.256Z,16.49
2023-03-18T08:27:44.591Z,16.59
2023-03-18T08:30:13.821Z,16.23
2023-03-18T08:32:42.172Z,17.18
2023-03-18T08:35:11.742Z,16.33
2023-03-18T08:37:39.603Z,16.82
2023-03-18T08:40:09.955Z,17.46
2023-03-18T08:42:37.388Z,17.00
2023-03-18T08:45:05.622Z,16.47
2023-03-18T08:47:32.913Z,15.99
2023-03-18T08:50:00.499Z,16.90
2023-03-18T08:52:27.869Z,15.09
2023-03-18T08:54:55.532Z,14.37
2023-03-18T08:57:22.929Z,14.29
2023-03-18T08:59:51.191Z,14.31
2023-03-18T09:02:18.542Z,13.50
2023-03-18T09:04:48.318Z,13.89
2023-03-18T09:07:17.955Z,15.18
2023-03-18T09:09:46.753Z,14.01
2023-03-18T09:12:15.029Z,15.12
2023-03-18T09:14:44.101Z,13.20
2023-03-18T09:17:11.702Z,13.14
2023-03-18T09:19:39.688Z,12.62
2023-03-18T09:22:08.481Z,12.56
2023-03-18T09:24:36.293Z,13.74
2023-03-18T09:27:03.752Z,12.47
2023-03-18T09:29:32.072Z,13.03
2023-03-18T09:32:00.705Z,12.26
2023-03-18T09:34:28.412Z,11.59
2023-03-18T09:36:55.692Z,11.34
2023-03-18T09:39:23.336Z,12.70
2023-03-18T09:42:36.395Z,11.67
2023-03-18T09:45:39.056Z,11.03
2023-03-18T09:48:46.015Z,10.88
2023-03-18T09:51:53.927Z,9.39
2023-03-18T09:54:59.988Z,9.60
2023-03-18T09:57:36.950Z,9.70
2023-03-18T10:00:21.130Z,9.76
2023-03-18T10:02:59.138Z,9.43
2023-03-18T10:05:36.161Z,9.20
2023-03-18T10:08:52.985Z,8.49
2023-03-18T10:11:33.882Z,8.18
2023-03-18T10:14:27.603Z,7.88
2023-03-18T10:17:26.084Z,7.92
2023-03-18T10:19:59.486Z,7.67
2023-03-18T10:23:03.735Z,7.36
2023-03-18T10:25:51.683Z,6.93
2023-03-18T10:28:59.460Z,6.79
2023-03-18T10:31:57.308Z,6.97
2023-03-18T10:34:40.457Z,7.07
2023-03-18T10:37:41.205Z,7.93
2023-03-18T10:40:16.003Z,7.59
2023-03-18T10:42:45.638Z,7.67
2023-03-18T10:45:24.680Z,7.83
2023-03-18T10:48:12.825Z,7.75
2023-03-18T10:50:57.053Z,8.65
2023-03-18T10:53:51.844Z,8.52
2023-03-18T10:56:19.517Z,8.62
2023-03-18T10:58:47.149Z,9.87
2023-03-18T11:01:21.188Z,9.86
2023-03-18T11:03:54.691Z,10.04
2023-03-18T11:06:50.256Z,9.96
2023-03-18T11:09:22.491Z,10.58
2023-03-18T11:11:57.205Z,10.91
2023-03-18T11:14:31.761Z,11.13
2023-03-18T11:17:22.333Z,11.47
2023-03-18T11:20:08.316Z,12.12
2023-03-18T11:22:38.128Z,12.24
2023-03-18T11:25:14.048Z,12.08
2023-03-18T11:27:46.064Z,11.46
2023-03-18T11:30:34.994Z,10.83
2023-03-18T11:33:14.298Z,11.01
2023-03-18T11:35:55.200Z,11.21
2023-03-18T11:38:32.768Z,11.21
2023-03-18T11:41:26.080Z,11.51
2023-03-18T11:44:03.411Z,11.62
2023-03-18T11:46:46.086Z,11.36
2023-03-18T11:49:22.987Z,10.81
2023-03-18T11:51:59.450Z,11.36
2023-03-18T11:55:09.622Z,11.51
2023-03-18T11:58:08.925Z,12.19
2023-03-18T12:00:50.323Z,12.76
2023-03-18T12:04:23.491Z,12.94
2023-03-18T12:07:23.778Z,12.25
2023-03-18T12:09:57.073Z,12.68
2023-03-18T12:12:48.465Z,12.73
2023-03-18T12:15:40.634Z,12.50
2023-03-18T12:19:01.710Z,12.16
2023-03-18T12:21:56.363Z,11.80
2023-03-18T12:25:14.322Z,11.53
2023-03-18T12:28:22.045Z,10.70
2023-03-18T12:31:02.559Z,10.38
2023-03-18T12:34:01.575Z,9.92
2023-03-18T12:37:12.045Z,10.28
2023-03-18T12:40:08.023Z,10.01
2023-03-18T12:42:51.962Z,10.36
2023-03-18T12:45:23.843Z,10.49
2023-03-18T12:48:09.408Z,10.15
2023-03-18T12:50:54.727Z,10.71
2023-03-18T12:53:46.416Z,10.93
2023-03-18T12:56:21.629Z,10.94
2023-03-18T12:59:22.329Z,11.35
2023-03-18T13:02:18.644Z,11.02
2023-03-18T13:05:00.728Z,10.99
2023-03-18T13:07:44.354Z,11.35
2023-03-18T13:10:23.665Z,11.57
2023-03-18T13:13:01.024Z,10.86
2023-03-18T13:15:55.293Z,11.14
2023-03-18T13:18:39.855Z,11.20
2023-03-18T13:21:12.652Z,11.37
2023-03-18T13:24:24.108Z,11.60
2023-03-18T13:27:19.776Z,11.63
2023-03-18T13:30:30.078Z,12.95
2023-03-18T13:33:42.881Z,12.96
2023-03-18T13:36:43.761Z,12.86
2023-03-18T13:39:38.226Z,13.15
2023-03-18T13:42:11.558Z,12.73
2023-03-18T13:44:55.704Z,12.97
2023-03-18T13:47:28.689Z,12.67
2023-03-18T13:50:22.399Z,12.50
2023-03-18T13:52:55.250Z,12.31
2023-03-18T13:55:45.087Z,11.97
2023-03-18T13:58:23.605Z,12.26
2023-03-18T14:00:57.147Z,12.25
2023-03-18T14:03:43.182Z,12.58
2023-03-18T14:06:15.667Z,12.49
2023-03-18T14:08:43.305Z,12.73
2023-03-18T14:11:28.782Z,12.74
2023-03-18T14:14:02.251Z,12.73
2023-03-18T14:16:36.302Z,12.77
2023-03-18T14:19:20.892Z,13.04
2023-03-18T14:21:55.155Z,13.22
2023-03-18T14:24:26.759Z,13.34
2023-03-18T14:27:04.444Z,13.46
2023-03-18T14:29:47.318Z,13.50
2023-03-18T14:32:35.538Z,13.28
2023-03-18T14:35:18.561Z,13.25
2023-03-18T14:38:24.974Z,13.02
2023-03-18T14:40:57.562Z,13.86
2023-03-18T14:43:37.464Z,13.79
2023-03-18T14:46:17.741Z,14.15
2023-03-18T14:48:46.199Z,13.96
2023-03-18T14:51:21.179Z,14.59
2023-03-18T14:53:59.837Z,15.09
2023-03-18T14:56:38.578Z,15.32
2023-03-18T14:59:05.978Z,15.84
2023-03-18T15:01:40.540Z,15.56
2023-03-18T15:04:18.106Z,16.63
2023-03-18T15:06:46.481Z,16.26
2023-03-18T15:09:27.246Z,16.98
2023-03-18T15:11:55.249Z,16.71
2023-03-18T15:14:32.650Z,17.04
2023-03-18T15:17:05.130Z,17.60
2023-03-18T15:19:32.808Z,17.51
2023-03-18T15:22:07.157Z,18.21
2023-03-18T15:24:35.756Z,17.98
2023-03-18T15:27:14.784Z,18.16
2023-03-18T15:29:57.748Z,18.24
2023-03-18T15:32:27.335Z,18.21
2023-03-18T15:35:11.174Z,18.43
2023-03-18T15:37:45.386Z,18.16
2023-03-18T15:40:26.634Z,18.27
2023-03-18T15:43:12.020Z,18.58
2023-03-18T15:45:48.108Z,18.58
2023-03-18T15:48:40.798Z,19.23
2023-03-18T15:51:48.152Z,18.74
2023-03-18T15:54:28.106Z,18.68
2023-03-18T15:56:58.901Z,19.47
2023-03-18T15:59:31.246Z,19.07
2023-03-18T16:02:00.572Z,19.94
2023-03-18T16:04:35.445Z,19.95
2023-03-18T16:07:03.974Z,20.02
2023-03-18T16:09:34.459Z,19.86
2023-03-18T16:12:19.308Z,19.97
2023-03-18T16:14:51.054Z,20.28
2023-03-18T16:17:21.818Z,20.78
2023-03-18T16:19:55.806Z,21.07
2023-03-18T16:22:23.385Z,20.97
2023-03-18T16:24:51.126Z,20.95
2023-03-18T16:27:38.481Z,21.18
2023-03-18T16:30:16.410Z,21.42
2023-03-18T16:32:44.888Z,21.45
2023-03-18T16:35:18.067Z,21.80
2023-03-18T16:37:48.051Z,21.90
2023-03-18T16:40:22.168Z,21.77
2023-03-18T16:42:51.176Z,21.90
2023-03-18T16:45:25.388Z,21.96
2023-03-18T16:47:58.836Z,22.01
2023-03-18T16:50:34.993Z,22.10
2023-03-18T16:53:03.126Z,22.12
2023-03-18T16:55:31.472Z,22.13
2023-03-18T16:58:00.041Z,22.30
2023-03-18T17:00:32.955Z,22.15
2023-03-18T17:03:01.772Z,22.40
2023-03-18T17:05:29.629Z,22.50
2023-03-18T17:07:56.998Z,22.46
2023-03-18T17:10:27.170Z,22.63
2023-03-18T17:13:05.951Z,22.49
2023-03-18T17:15:38.289Z,22.52
2023-03-18T17:18:12.059Z,22.92
2023-03-18T17:20:41.445Z,23.00
2023-03-18T17:23:32.669Z,23.24
2023-03-18T17:26:03.038Z,23.20
2023-03-18T17:28:45.762Z,23.59
2023-03-18T17:31:14.159Z,23.98
2023-03-18T17:33:41.998Z,24.32
2023-03-18T17:36:10.319Z,24.43
2023-03-18T17:38:37.676Z,24.35
2023-03-18T17:41:14.828Z,24.17
2023-03-18T17:43:42.254Z,24.64
2023-03-18T17:46:09.881Z,24.48
2023-03-18T17:48:39.685Z,24.68
2023-03-18T17:51:27.540Z,24.34
2023-03-18T17:54:00.131Z,24.45
2023-03-18T17:56:28.884Z,24.36
2023-03-18T17:58:56.237Z,24.52
2023-03-18T18:01:27.437Z,24.43
2023-03-18T18:03:58.200Z,24.69
2023-03-18T18:06:32.109Z,24.70
2023-03-18T18:09:01.162Z,24.76
2023-03-18T18:11:38.027Z,24.77
2023-03-18T18:14:26.123Z,24.91
2023-03-18T18:16:59.601Z,24.80
2023-03-18T18:19:27.160Z,24.81
2023-03-18T18:21:54.968Z,24.92
2023-03-18T18:24:30.860Z,25.04
2023-03-18T18:26:58.471Z,25.20
2023-03-18T18:29:29.611Z,25.19
2023-03-18T18:31:57.486Z,25.36
2023-03-18T18:34:24.980Z,25.46
2023-03-18T18:36:52.886Z,25.29
2023-03-18T18:39:21.121Z,25.43
2023-03-18T18:41:48.931Z,25.45
2023-03-18T18:44:16.297Z,25.26
2023-03-18T18:46:43.869Z,25.47
2023-03-18T18:49:23.784Z,25.37
2023-03-18T18:51:54.834Z,25.45
2023-03-18T18:54:24.167Z,25.51
2023-03-18T18:56:53.112Z,25.59
2023-03-18T18:59:30.848Z,25.58
2023-03-18T19:02:00.754Z,25.92
2023-03-18T19:04:29.258Z,25.84
2023-03-18T19:06:56.921Z,25.95
2023-03-18T19:09:26.295Z,25.81
2023-03-18T19:11:56.435Z,25.60
2023-03-18T19:14:29.472Z,25.93
2023-03-18T19:16:59.857Z,25.97
2023-03-18T19:19:34.983Z,25.98
2023-03-18T19:22:03.664Z,26.09
2023-03-18T19:24:39.338Z,26.20
2023-03-18T19:27:20.112Z,26.12
2023-03-18T19:29:47.831Z,26.08
2023-03-18T19:32:21.204Z,26.25
2023-03-18T19:34:51.723Z,26.52
2023-03-18T19:37:24.058Z,26.18
2023-03-18T19:39:51.946Z,26.15
2023-03-18T19:42:20.120Z,26.23
2023-03-18T19:44:48.739Z,26.28
2023-03-18T19:47:29.783Z,26.18
2023-03-18T19:49:57.159Z,26.23
2023-03-18T19:52:27.739Z,26.41
2023-03-18T19:54:55.873Z,26.21
2023-03-18T19:57:31.888Z,26.25
2023-03-18T20:00:01.326Z,26.35
2023-03-18T20:02:33.998Z,26.17
2023-03-18T20:05:15.065Z,26.80
2023-03-18T20:07:42.754Z,26.78
2023-03-18T20:10:14.746Z,26.78
2023-03-18T20:12:49.323Z,27.00
2023-03-18T20:15:25.611Z,26.89
2023-03-18T20:17:54.085Z,27.10
2023-03-18T20:20:44.640Z,27.20
2023-03-18T20:23:22.374Z,27.61
2023-03-18T20:25:51.831Z,27.79
2023-03-18T20:28:23.767Z,27.70
2023-03-18T20:30:54.104Z,28.47
2023-03-18T20:33:23.002Z,28.24
2023-03-18T20:35:53.932Z,28.06
2023-03-18T20:38:37.526Z,28.46
2023-03-18T20:41:07.232Z,28.54
2023-03-18T20:43:35.031Z,28.82
2023-03-18T20:46:02.584Z,29.24
2023-03-18T20:48:30.464Z,29.20
2023-03-18T20:50:58.433Z,29.33
2023-03-18T20:53:29.036Z,29.47
2023-03-18T20:55:56.869Z,29.58
2023-03-18T20:58:28.243Z,30.03
2023-03-18T21:00:56.114Z,30.06
2023-03-18T21:03:33.572Z,29.64
2023-03-18T21:06:03.979Z,30.16
2023-03-18T21:08:32.105Z,29.71
2023-03-18T21:11:02.244Z,29.87
2023-03-18T21:13:39.020Z,30.29
2023-03-18T21:16:13.942Z,29.96
2023-03-18T21:18:47.759Z,30.57
2023-03-18T21:21:24.896Z,30.22
2023-03-18T21:23:54.514Z,30.47
2023-03-18T21:26:23.834Z,30.96
2023-03-18T21:28:52.603Z,30.34
2023-03-18T21:31:26.080Z,30.45
2023-03-18T21:33:55.330Z,31.19
2023-03-18T21:36:22.617Z,31.74
2023-03-18T21:38:50.969Z,32.18
2023-03-18T21:41:36.806Z,32.76
2023-03-18T21:44:04.685Z,32.80
2023-03-18T21:46:32.220Z,32.97
2023-03-18T21:49:00.126Z,33.09
2023-03-18T21:51:39.624Z,33.17
2023-03-18T21:54:18.270Z,33.14
2023-03-18T21:56:45.601Z,33.27
2023-03-18T21:59:13.297Z,33.13
2023-03-18T22:01:40.613Z,32.97
2023-03-18T22:04:08.558Z,32.95
2023-03-18T22:06:35.851Z,33.26
2023-03-18T22:09:03.732Z,33.15
2023-03-18T22:11:31.062Z,33.05
2023-03-18T22:13:58.693Z,33.17
2023-03-18T22:16:26.125Z,33.63
2023-03-18T22:18:53.787Z,33.44
2023-03-18T22:21:26.298Z,33.43
2023-03-18T22:23:54.447Z,32.76
2023-03-18T22:26:22.231Z,32.61
2023-03-18T22:28:50.772Z,32.51
2023-03-18T22:31:27.086Z,32.20
2023-03-18T22:33:55.355Z,32.27
2023-03-18T22:36:23.892Z,32.17
2023-03-18T22:38:51.578Z,32.20
2023-03-18T22:41:31.234Z,32.40
2023-03-18T22:44:00.220Z,32.39
2023-03-18T22:46:28.592Z,32.22
2023-03-18T22:48:56.958Z,32.57
2023-03-18T22:51:29.729Z,32.49
2023-03-18T22:53:57.547Z,32.79
2023-03-18T22:56:24.908Z,32.56
2023-03-18T22:58:52.666Z,32.60
2023-03-18T23:01:26.717Z,32.51
2023-03-18T23:03:54.364Z,32.65
2023-03-18T23:06:27.158Z,32.89
2023-03-18T23:08:54.858Z,32.84
2023-03-18T23:11:22.100Z,32.74
2023-03-18T23:13:52.210Z,33.13
2023-03-18T23:16:23.754Z,33.53
2023-03-18T23:18:52.297Z,33.42
2023-03-18T23:21:23.687Z,33.76
2023-03-18T23:23:52.554Z,34.06
2023-03-18T23:26:20.570Z,34.27
2023-03-18T23:28:49.141Z,34.57
2023-03-18T23:31:16.991Z,34.64
2023-03-18T23:33:45.178Z,35.29
2023-03-18T23:36:13.119Z,35.44
2023-03-18T23:38:41.125Z,35.49
2023-03-18T23:41:08.573Z,35.76
2023-03-18T23:43:36.863Z,35.96
2023-03-18T23:46:04.372Z,36.30
2023-03-18T23:48:32.021Z,36.38
2023-03-18T23:50:59.359Z,36.46
2023-03-18T23:53:27.303Z,37.25
2023-03-18T23:55:54.541Z,37.00
2023-03-18T23:58:22.326Z,37.35
